This London Heathrow Airport weather forecast is generated by the Met Office Weather Widget

AirNav RadarBox - Metar Weather
  London Heathrow Metar Weather
 

METAR = EGLL 241050Z 22007KT 190V260 9999 FEW009 SCT014 BKN020 16/14 Q1015

STATION........ EGLL
OBSERVED....... Fri Oct 24, 11:50 BST
NOW............ Fri Oct 24, 12:14 BST
AGE............ 24 min ago
WIND........... SW at 8 mph
VISIBILITY..... 16 miles
CLOUDS......... mostly cloudy
TEMP........... 61°F (16°C)
DEWPT.......... 57°F (14°C)
HUMIDITY....... 88%
BAROMETER...... 1015 hPa (29.97 in Hg)

Fri Oct 24 2014, sunrise time : 06:45
Fri Oct 24 2014, sunset time : 16:45